sensor_id;sensor_type;location;lat;lon;timestamp;P1;durP1;ratioP1;P2;durP2;ratioP2
52668;SDS011;59898;52.786;6.892;2023-08-08T00:03:14;7.30;;;4.75;;
52668;SDS011;59898;52.786;6.892;2023-08-08T00:06:35;8.20;;;4.18;;
52668;SDS011;59898;52.786;6.892;2023-08-08T00:09:56;6.63;;;4.82;;
52668;SDS011;59898;52.786;6.892;2023-08-08T00:13:17;5.93;;;4.90;;
52668;SDS011;59898;52.786;6.892;2023-08-08T00:16:37;5.93;;;4.07;;
52668;SDS011;59898;52.786;6.892;2023-08-08T00:19:58;9.57;;;5.25;;
52668;SDS011;59898;52.786;6.892;2023-08-08T00:23:19;7.43;;;4.82;;
52668;SDS011;59898;52.786;6.892;2023-08-08T00:26:39;6.25;;;5.10;;
52668;SDS011;59898;52.786;6.892;2023-08-08T00:30:00;6.20;;;4.35;;
52668;SDS011;59898;52.786;6.892;2023-08-08T00:33:21;5.57;;;4.65;;
52668;SDS011;59898;52.786;6.892;2023-08-08T00:36:41;7.32;;;4.57;;
52668;SDS011;59898;52.786;6.892;2023-08-08T00:40:02;5.50;;;4.75;;
52668;SDS011;59898;52.786;6.892;2023-08-08T00:43:23;8.50;;;4.70;;
52668;SDS011;59898;52.786;6.892;2023-08-08T00:46:43;7.03;;;4.97;;
52668;SDS011;59898;52.786;6.892;2023-08-08T00:50:04;7.82;;;4.97;;
52668;SDS011;59898;52.786;6.892;2023-08-08T00:53:25;5.45;;;4.80;;
52668;SDS011;59898;52.786;6.892;2023-08-08T00:56:48;8.88;;;5.00;;
52668;SDS011;59898;52.786;6.892;2023-08-08T01:00:08;6.28;;;4.97;;
52668;SDS011;59898;52.786;6.892;2023-08-08T01:03:30;9.27;;;5.68;;
52668;SDS011;59898;52.786;6.892;2023-08-08T01:10:28;9.65;;;5.32;;
52668;SDS011;59898;52.786;6.892;2023-08-08T01:13:53;13.27;;;6.00;;
52668;SDS011;59898;52.786;6.892;2023-08-08T01:17:15;7.60;;;5.55;;
52668;SDS011;59898;52.786;6.892;2023-08-08T01:20:36;6.40;;;4.97;;
52668;SDS011;59898;52.786;6.892;2023-08-08T01:24:00;9.07;;;4.95;;
52668;SDS011;59898;52.786;6.892;2023-08-08T01:27:35;8.45;;;5.32;;
52668;SDS011;59898;52.786;6.892;2023-08-08T01:30:56;8.98;;;4.90;;
52668;SDS011;59898;52.786;6.892;2023-08-08T01:34:16;7.43;;;5.35;;
52668;SDS011;59898;52.786;6.892;2023-08-08T01:37:41;5.88;;;4.53;;
52668;SDS011;59898;52.786;6.892;2023-08-08T01:41:06;7.05;;;5.03;;
52668;SDS011;59898;52.786;6.892;2023-08-08T01:44:28;7.73;;;6.40;;
52668;SDS011;59898;52.786;6.892;2023-08-08T01:47:50;9.95;;;5.80;;
52668;SDS011;59898;52.786;6.892;2023-08-08T01:51:11;13.13;;;5.38;;
52668;SDS011;59898;52.786;6.892;2023-08-08T01:54:31;7.22;;;4.57;;
52668;SDS011;59898;52.786;6.892;2023-08-08T01:57:52;12.38;;;5.25;;
52668;SDS011;59898;52.786;6.892;2023-08-08T02:01:12;6.53;;;4.47;;
52668;SDS011;59898;52.786;6.892;2023-08-08T02:04:33;10.13;;;6.05;;
52668;SDS011;59898;52.786;6.892;2023-08-08T02:07:53;6.03;;;4.65;;
52668;SDS011;59898;52.786;6.892;2023-08-08T02:11:14;6.63;;;5.22;;
52668;SDS011;59898;52.786;6.892;2023-08-08T02:14:35;8.68;;;5.68;;
52668;SDS011;59898;52.786;6.892;2023-08-08T02:17:55;8.63;;;5.80;;
52668;SDS011;59898;52.786;6.892;2023-08-08T02:21:16;10.05;;;5.72;;
52668;SDS011;59898;52.786;6.892;2023-08-08T02:24:36;8.77;;;6.00;;
52668;SDS011;59898;52.786;6.892;2023-08-08T02:27:57;11.57;;;5.45;;
52668;SDS011;59898;52.786;6.892;2023-08-08T02:31:17;10.48;;;5.32;;
52668;SDS011;59898;52.786;6.892;2023-08-08T02:34:40;9.80;;;5.63;;
52668;SDS011;59898;52.786;6.892;2023-08-08T02:38:02;12.35;;;5.95;;
52668;SDS011;59898;52.786;6.892;2023-08-08T02:41:23;9.27;;;5.43;;
52668;SDS011;59898;52.786;6.892;2023-08-08T02:44:43;9.95;;;5.57;;
52668;SDS011;59898;52.786;6.892;2023-08-08T02:48:04;8.77;;;5.53;;
52668;SDS011;59898;52.786;6.892;2023-08-08T02:51:25;8.32;;;5.60;;
52668;SDS011;59898;52.786;6.892;2023-08-08T02:54:46;12.15;;;6.18;;
52668;SDS011;59898;52.786;6.892;2023-08-08T02:58:06;9.90;;;5.95;;
52668;SDS011;59898;52.786;6.892;2023-08-08T03:01:27;15.55;;;5.70;;
52668;SDS011;59898;52.786;6.892;2023-08-08T03:04:47;9.77;;;5.47;;
52668;SDS011;59898;52.786;6.892;2023-08-08T03:08:08;13.07;;;5.68;;
52668;SDS011;59898;52.786;6.892;2023-08-08T03:11:28;10.55;;;5.18;;
52668;SDS011;59898;52.786;6.892;2023-08-08T03:14:49;9.63;;;5.85;;
52668;SDS011;59898;52.786;6.892;2023-08-08T03:18:10;9.00;;;5.78;;
52668;SDS011;59898;52.786;6.892;2023-08-08T03:21:30;15.43;;;7.78;;
52668;SDS011;59898;52.786;6.892;2023-08-08T03:24:51;13.70;;;5.43;;
52668;SDS011;59898;52.786;6.892;2023-08-08T03:28:11;9.27;;;6.32;;
52668;SDS011;59898;52.786;6.892;2023-08-08T03:31:32;13.00;;;5.82;;
52668;SDS011;59898;52.786;6.892;2023-08-08T03:34:53;11.48;;;6.07;;
52668;SDS011;59898;52.786;6.892;2023-08-08T03:38:13;11.02;;;6.43;;
52668;SDS011;59898;52.786;6.892;2023-08-08T03:41:34;13.05;;;5.30;;
52668;SDS011;59898;52.786;6.892;2023-08-08T03:44:55;13.35;;;5.75;;
52668;SDS011;59898;52.786;6.892;2023-08-08T03:48:15;11.88;;;5.82;;
52668;SDS011;59898;52.786;6.892;2023-08-08T03:51:36;10.25;;;5.90;;
52668;SDS011;59898;52.786;6.892;2023-08-08T03:54:56;9.93;;;5.40;;
52668;SDS011;59898;52.786;6.892;2023-08-08T03:58:17;9.35;;;5.85;;
52668;SDS011;59898;52.786;6.892;2023-08-08T04:01:38;9.32;;;5.88;;
52668;SDS011;59898;52.786;6.892;2023-08-08T04:04:58;8.35;;;6.05;;
52668;SDS011;59898;52.786;6.892;2023-08-08T04:08:19;9.88;;;5.47;;
52668;SDS011;59898;52.786;6.892;2023-08-08T04:11:39;8.07;;;5.10;;
52668;SDS011;59898;52.786;6.892;2023-08-08T04:15:00;9.18;;;5.28;;
52668;SDS011;59898;52.786;6.892;2023-08-08T04:18:21;11.05;;;4.40;;
52668;SDS011;59898;52.786;6.892;2023-08-08T04:21:41;11.82;;;4.60;;
52668;SDS011;59898;52.786;6.892;2023-08-08T04:25:03;9.77;;;4.55;;
52668;SDS011;59898;52.786;6.892;2023-08-08T04:28:24;9.32;;;5.25;;
52668;SDS011;59898;52.786;6.892;2023-08-08T04:31:44;8.10;;;4.45;;
52668;SDS011;59898;52.786;6.892;2023-08-08T04:35:05;7.88;;;4.05;;
52668;SDS011;59898;52.786;6.892;2023-08-08T04:38:26;8.35;;;3.75;;
52668;SDS011;59898;52.786;6.892;2023-08-08T04:41:46;8.27;;;3.70;;
52668;SDS011;59898;52.786;6.892;2023-08-08T04:45:07;8.65;;;4.05;;
52668;SDS011;59898;52.786;6.892;2023-08-08T04:48:28;9.77;;;4.07;;
52668;SDS011;59898;52.786;6.892;2023-08-08T04:51:48;9.75;;;3.97;;
52668;SDS011;59898;52.786;6.892;2023-08-08T04:55:09;9.27;;;3.58;;
52668;SDS011;59898;52.786;6.892;2023-08-08T04:58:30;7.72;;;4.00;;
52668;SDS011;59898;52.786;6.892;2023-08-08T05:01:51;7.07;;;4.10;;
52668;SDS011;59898;52.786;6.892;2023-08-08T05:05:11;5.13;;;3.42;;
52668;SDS011;59898;52.786;6.892;2023-08-08T05:08:32;6.82;;;3.38;;
52668;SDS011;59898;52.786;6.892;2023-08-08T05:11:52;12.63;;;3.65;;
52668;SDS011;59898;52.786;6.892;2023-08-08T05:15:13;5.82;;;3.03;;
52668;SDS011;59898;52.786;6.892;2023-08-08T05:18:34;9.52;;;3.67;;
52668;SDS011;59898;52.786;6.892;2023-08-08T05:21:54;6.80;;;3.55;;
52668;SDS011;59898;52.786;6.892;2023-08-08T05:25:15;9.80;;;3.38;;
52668;SDS011;59898;52.786;6.892;2023-08-08T05:28:35;9.10;;;3.22;;
52668;SDS011;59898;52.786;6.892;2023-08-08T05:31:56;5.45;;;3.25;;
52668;SDS011;59898;52.786;6.892;2023-08-08T05:35:16;7.43;;;2.90;;
52668;SDS011;59898;52.786;6.892;2023-08-08T05:38:37;8.20;;;3.22;;
52668;SDS011;59898;52.786;6.892;2023-08-08T05:41:58;5.38;;;3.03;;
52668;SDS011;59898;52.786;6.892;2023-08-08T05:45:18;6.35;;;3.00;;
52668;SDS011;59898;52.786;6.892;2023-08-08T05:48:39;7.05;;;2.50;;
52668;SDS011;59898;52.786;6.892;2023-08-08T05:51:59;7.70;;;2.88;;
52668;SDS011;59898;52.786;6.892;2023-08-08T05:55:21;6.35;;;3.38;;
52668;SDS011;59898;52.786;6.892;2023-08-08T05:58:42;9.45;;;2.45;;
52668;SDS011;59898;52.786;6.892;2023-08-08T06:02:02;8.10;;;3.03;;
52668;SDS011;59898;52.786;6.892;2023-08-08T06:05:23;9.30;;;3.28;;
52668;SDS011;59898;52.786;6.892;2023-08-08T06:08:44;4.82;;;2.45;;
52668;SDS011;59898;52.786;6.892;2023-08-08T06:12:05;5.53;;;2.20;;
52668;SDS011;59898;52.786;6.892;2023-08-08T06:15:26;5.63;;;2.38;;
52668;SDS011;59898;52.786;6.892;2023-08-08T06:18:47;5.07;;;2.50;;
52668;SDS011;59898;52.786;6.892;2023-08-08T06:22:07;4.25;;;2.25;;
52668;SDS011;59898;52.786;6.892;2023-08-08T06:25:28;4.90;;;2.20;;
52668;SDS011;59898;52.786;6.892;2023-08-08T06:28:48;4.00;;;2.13;;
52668;SDS011;59898;52.786;6.892;2023-08-08T06:32:09;5.50;;;3.05;;
52668;SDS011;59898;52.786;6.892;2023-08-08T06:35:30;4.10;;;2.40;;
52668;SDS011;59898;52.786;6.892;2023-08-08T06:38:50;13.73;;;2.70;;
52668;SDS011;59898;52.786;6.892;2023-08-08T06:42:11;5.65;;;2.60;;
52668;SDS011;59898;52.786;6.892;2023-08-08T06:45:31;4.90;;;2.33;;
52668;SDS011;59898;52.786;6.892;2023-08-08T06:48:52;5.38;;;2.35;;
52668;SDS011;59898;52.786;6.892;2023-08-08T06:52:16;6.60;;;2.72;;
52668;SDS011;59898;52.786;6.892;2023-08-08T06:55:37;6.28;;;2.55;;
52668;SDS011;59898;52.786;6.892;2023-08-08T06:58:58;7.07;;;2.47;;
52668;SDS011;59898;52.786;6.892;2023-08-08T07:02:19;6.57;;;1.95;;
52668;SDS011;59898;52.786;6.892;2023-08-08T07:05:40;8.17;;;2.57;;
52668;SDS011;59898;52.786;6.892;2023-08-08T07:09:01;3.72;;;2.40;;
52668;SDS011;59898;52.786;6.892;2023-08-08T07:12:22;7.68;;;2.53;;
52668;SDS011;59898;52.786;6.892;2023-08-08T07:15:42;4.85;;;2.53;;
52668;SDS011;59898;52.786;6.892;2023-08-08T07:19:03;6.05;;;2.30;;
52668;SDS011;59898;52.786;6.892;2023-08-08T07:22:24;8.57;;;2.75;;
52668;SDS011;59898;52.786;6.892;2023-08-08T07:25:47;7.47;;;2.30;;
52668;SDS011;59898;52.786;6.892;2023-08-08T07:29:08;5.07;;;2.50;;
52668;SDS011;59898;52.786;6.892;2023-08-08T07:32:28;6.97;;;2.33;;
52668;SDS011;59898;52.786;6.892;2023-08-08T07:35:49;4.10;;;2.10;;
52668;SDS011;59898;52.786;6.892;2023-08-08T07:39:09;6.25;;;2.42;;
52668;SDS011;59898;52.786;6.892;2023-08-08T07:42:30;6.80;;;2.33;;
52668;SDS011;59898;52.786;6.892;2023-08-08T07:45:51;4.15;;;2.08;;
52668;SDS011;59898;52.786;6.892;2023-08-08T07:49:13;4.80;;;2.00;;
52668;SDS011;59898;52.786;6.892;2023-08-08T07:52:34;7.43;;;2.33;;
52668;SDS011;59898;52.786;6.892;2023-08-08T07:55:55;3.45;;;1.95;;
52668;SDS011;59898;52.786;6.892;2023-08-08T07:59:15;5.63;;;3.08;;
52668;SDS011;59898;52.786;6.892;2023-08-08T08:02:36;6.25;;;2.28;;
52668;SDS011;59898;52.786;6.892;2023-08-08T08:05:57;6.57;;;2.00;;
52668;SDS011;59898;52.786;6.892;2023-08-08T08:09:17;4.97;;;2.00;;
52668;SDS011;59898;52.786;6.892;2023-08-08T08:12:38;5.20;;;2.25;;
52668;SDS011;59898;52.786;6.892;2023-08-08T08:19:21;5.35;;;2.25;;
52668;SDS011;59898;52.786;6.892;2023-08-08T08:22:42;4.07;;;2.63;;
52668;SDS011;59898;52.786;6.892;2023-08-08T08:26:02;4.82;;;2.53;;
52668;SDS011;59898;52.786;6.892;2023-08-08T08:29:23;4.32;;;1.92;;
52668;SDS011;59898;52.786;6.892;2023-08-08T08:32:44;6.65;;;2.35;;
52668;SDS011;59898;52.786;6.892;2023-08-08T08:36:04;5.40;;;2.00;;
52668;SDS011;59898;52.786;6.892;2023-08-08T08:39:25;4.68;;;2.00;;
52668;SDS011;59898;52.786;6.892;2023-08-08T08:42:46;8.10;;;2.08;;
52668;SDS011;59898;52.786;6.892;2023-08-08T08:46:07;3.42;;;1.70;;
52668;SDS011;59898;52.786;6.892;2023-08-08T08:52:51;4.18;;;2.05;;
52668;SDS011;59898;52.786;6.892;2023-08-08T08:56:15;4.05;;;2.08;;
52668;SDS011;59898;52.786;6.892;2023-08-08T08:59:36;3.42;;;1.92;;
52668;SDS011;59898;52.786;6.892;2023-08-08T09:02:57;2.38;;;1.90;;
52668;SDS011;59898;52.786;6.892;2023-08-08T09:06:18;5.40;;;2.05;;
52668;SDS011;59898;52.786;6.892;2023-08-08T09:09:42;4.07;;;1.95;;
52668;SDS011;59898;52.786;6.892;2023-08-08T09:13:03;2.70;;;1.92;;
52668;SDS011;59898;52.786;6.892;2023-08-08T09:16:24;5.43;;;1.75;;
52668;SDS011;59898;52.786;6.892;2023-08-08T09:19:45;3.85;;;2.13;;
52668;SDS011;59898;52.786;6.892;2023-08-08T09:23:08;2.75;;;1.77;;
52668;SDS011;59898;52.786;6.892;2023-08-08T09:26:29;5.25;;;2.05;;
52668;SDS011;59898;52.786;6.892;2023-08-08T09:29:50;4.80;;;2.05;;
52668;SDS011;59898;52.786;6.892;2023-08-08T09:33:11;4.65;;;1.90;;
52668;SDS011;59898;52.786;6.892;2023-08-08T09:36:32;2.92;;;1.90;;
52668;SDS011;59898;52.786;6.892;2023-08-08T09:39:58;3.45;;;2.13;;
52668;SDS011;59898;52.786;6.892;2023-08-08T09:43:19;2.65;;;2.15;;
52668;SDS011;59898;52.786;6.892;2023-08-08T09:46:40;6.40;;;2.10;;
52668;SDS011;59898;52.786;6.892;2023-08-08T09:50:02;2.70;;;1.80;;
52668;SDS011;59898;52.786;6.892;2023-08-08T09:53:27;4.25;;;1.92;;
52668;SDS011;59898;52.786;6.892;2023-08-08T09:56:49;2.38;;;1.70;;
52668;SDS011;59898;52.786;6.892;2023-08-08T10:00:11;5.65;;;2.00;;
52668;SDS011;59898;52.786;6.892;2023-08-08T10:03:35;12.23;;;5.43;;
52668;SDS011;59898;52.786;6.892;2023-08-08T10:06:57;3.47;;;2.17;;
52668;SDS011;59898;52.786;6.892;2023-08-08T10:10:18;6.63;;;2.83;;
52668;SDS011;59898;52.786;6.892;2023-08-08T10:13:46;4.55;;;1.95;;
52668;SDS011;59898;52.786;6.892;2023-08-08T10:17:08;6.15;;;2.72;;
52668;SDS011;59898;52.786;6.892;2023-08-08T10:20:33;7.38;;;2.90;;
52668;SDS011;59898;52.786;6.892;2023-08-08T10:24:32;5.40;;;2.00;;
52668;SDS011;59898;52.786;6.892;2023-08-08T10:27:42;4.32;;;2.15;;
52668;SDS011;59898;52.786;6.892;2023-08-08T10:31:03;3.22;;;1.70;;
52668;SDS011;59898;52.786;6.892;2023-08-08T10:34:40;2.13;;;1.50;;
52668;SDS011;59898;52.786;6.892;2023-08-08T10:38:07;4.45;;;2.00;;
52668;SDS011;59898;52.786;6.892;2023-08-08T10:41:28;6.25;;;1.83;;
52668;SDS011;59898;52.786;6.892;2023-08-08T10:44:52;4.45;;;1.95;;
52668;SDS011;59898;52.786;6.892;2023-08-08T10:48:13;5.03;;;2.10;;
52668;SDS011;59898;52.786;6.892;2023-08-08T10:51:36;3.47;;;1.98;;
52668;SDS011;59898;52.786;6.892;2023-08-08T10:54:58;2.40;;;1.50;;
52668;SDS011;59898;52.786;6.892;2023-08-08T10:58:20;7.03;;;2.40;;
52668;SDS011;59898;52.786;6.892;2023-08-08T11:01:41;5.65;;;2.42;;
52668;SDS011;59898;52.786;6.892;2023-08-08T11:05:02;2.75;;;1.83;;
52668;SDS011;59898;52.786;6.892;2023-08-08T11:08:23;4.30;;;2.33;;
52668;SDS011;59898;52.786;6.892;2023-08-08T11:11:44;5.43;;;2.60;;
52668;SDS011;59898;52.786;6.892;2023-08-08T11:15:05;3.80;;;2.28;;
52668;SDS011;59898;52.786;6.892;2023-08-08T11:18:26;8.90;;;2.22;;
52668;SDS011;59898;52.786;6.892;2023-08-08T11:21:48;4.40;;;2.30;;
52668;SDS011;59898;52.786;6.892;2023-08-08T11:25:09;5.07;;;2.30;;
52668;SDS011;59898;52.786;6.892;2023-08-08T11:28:29;5.57;;;2.25;;
52668;SDS011;59898;52.786;6.892;2023-08-08T11:31:50;5.30;;;2.42;;
52668;SDS011;59898;52.786;6.892;2023-08-08T11:35:11;5.13;;;2.30;;
52668;SDS011;59898;52.786;6.892;2023-08-08T11:38:31;7.75;;;3.47;;
52668;SDS011;59898;52.786;6.892;2023-08-08T11:41:53;9.63;;;3.55;;
52668;SDS011;59898;52.786;6.892;2023-08-08T11:45:14;4.38;;;2.10;;
52668;SDS011;59898;52.786;6.892;2023-08-08T11:48:34;2.38;;;1.52;;
52668;SDS011;59898;52.786;6.892;2023-08-08T11:51:55;3.67;;;1.90;;
52668;SDS011;59898;52.786;6.892;2023-08-08T11:55:16;4.15;;;1.80;;
52668;SDS011;59898;52.786;6.892;2023-08-08T11:58:36;3.88;;;2.17;;
52668;SDS011;59898;52.786;6.892;2023-08-08T12:01:57;7.25;;;2.30;;
52668;SDS011;59898;52.786;6.892;2023-08-08T12:05:20;7.00;;;2.42;;
52668;SDS011;59898;52.786;6.892;2023-08-08T12:08:42;8.25;;;2.60;;
52668;SDS011;59898;52.786;6.892;2023-08-08T12:12:03;8.43;;;2.55;;
52668;SDS011;59898;52.786;6.892;2023-08-08T12:15:29;3.50;;;2.08;;
52668;SDS011;59898;52.786;6.892;2023-08-08T12:18:51;4.47;;;2.20;;
52668;SDS011;59898;52.786;6.892;2023-08-08T12:22:11;2.90;;;1.90;;
52668;SDS011;59898;52.786;6.892;2023-08-08T12:25:32;3.03;;;2.25;;
52668;SDS011;59898;52.786;6.892;2023-08-08T12:28:53;4.13;;;2.20;;
52668;SDS011;59898;52.786;6.892;2023-08-08T12:32:14;12.80;;;2.92;;
52668;SDS011;59898;52.786;6.892;2023-08-08T12:35:35;3.80;;;2.03;;
52668;SDS011;59898;52.786;6.892;2023-08-08T12:38:55;4.72;;;1.83;;
52668;SDS011;59898;52.786;6.892;2023-08-08T12:42:16;3.60;;;2.10;;
52668;SDS011;59898;52.786;6.892;2023-08-08T12:45:37;7.13;;;2.45;;
52668;SDS011;59898;52.786;6.892;2023-08-08T12:48:57;8.57;;;5.57;;
52668;SDS011;59898;52.786;6.892;2023-08-08T12:52:18;4.72;;;2.30;;
52668;SDS011;59898;52.786;6.892;2023-08-08T12:55:39;3.17;;;2.20;;
52668;SDS011;59898;52.786;6.892;2023-08-08T12:59:00;5.70;;;1.98;;
52668;SDS011;59898;52.786;6.892;2023-08-08T13:02:22;4.25;;;2.10;;
52668;SDS011;59898;52.786;6.892;2023-08-08T13:05:43;5.35;;;2.10;;
52668;SDS011;59898;52.786;6.892;2023-08-08T13:09:04;3.47;;;1.88;;
52668;SDS011;59898;52.786;6.892;2023-08-08T13:12:24;5.00;;;2.25;;
52668;SDS011;59898;52.786;6.892;2023-08-08T13:15:45;4.40;;;2.15;;
52668;SDS011;59898;52.786;6.892;2023-08-08T13:19:07;4.72;;;2.45;;
52668;SDS011;59898;52.786;6.892;2023-08-08T13:22:28;4.45;;;2.38;;
52668;SDS011;59898;52.786;6.892;2023-08-08T13:25:48;6.00;;;2.22;;
52668;SDS011;59898;52.786;6.892;2023-08-08T13:29:09;3.45;;;2.08;;
52668;SDS011;59898;52.786;6.892;2023-08-08T13:32:31;6.65;;;2.65;;
52668;SDS011;59898;52.786;6.892;2023-08-08T13:35:52;4.25;;;2.30;;
52668;SDS011;59898;52.786;6.892;2023-08-08T13:39:12;4.00;;;2.55;;
52668;SDS011;59898;52.786;6.892;2023-08-08T13:42:33;10.00;;;2.75;;
52668;SDS011;59898;52.786;6.892;2023-08-08T13:45:54;4.10;;;2.30;;
52668;SDS011;59898;52.786;6.892;2023-08-08T13:52:37;7.97;;;2.10;;
52668;SDS011;59898;52.786;6.892;2023-08-08T13:55:58;4.38;;;2.10;;
52668;SDS011;59898;52.786;6.892;2023-08-08T13:59:19;6.30;;;3.17;;
52668;SDS011;59898;52.786;6.892;2023-08-08T14:02:39;7.13;;;2.35;;
52668;SDS011;59898;52.786;6.892;2023-08-08T14:06:00;7.88;;;2.28;;
52668;SDS011;59898;52.786;6.892;2023-08-08T14:09:21;4.10;;;2.80;;
52668;SDS011;59898;52.786;6.892;2023-08-08T14:12:42;4.55;;;2.22;;
52668;SDS011;59898;52.786;6.892;2023-08-08T14:16:03;7.38;;;1.92;;
52668;SDS011;59898;52.786;6.892;2023-08-08T14:19:24;5.10;;;2.33;;
52668;SDS011;59898;52.786;6.892;2023-08-08T14:22:44;3.00;;;1.98;;
52668;SDS011;59898;52.786;6.892;2023-08-08T14:26:09;12.07;;;3.47;;
52668;SDS011;59898;52.786;6.892;2023-08-08T14:29:29;3.58;;;2.05;;
52668;SDS011;59898;52.786;6.892;2023-08-08T14:32:50;3.70;;;2.00;;
52668;SDS011;59898;52.786;6.892;2023-08-08T14:36:11;8.55;;;2.25;;
52668;SDS011;59898;52.786;6.892;2023-08-08T14:39:31;5.65;;;2.22;;
52668;SDS011;59898;52.786;6.892;2023-08-08T14:42:52;4.07;;;2.10;;
52668;SDS011;59898;52.786;6.892;2023-08-08T14:46:13;4.97;;;2.00;;
52668;SDS011;59898;52.786;6.892;2023-08-08T14:49:33;5.38;;;1.80;;
52668;SDS011;59898;52.786;6.892;2023-08-08T14:52:54;3.60;;;2.20;;
52668;SDS011;59898;52.786;6.892;2023-08-08T14:56:15;2.78;;;1.73;;
52668;SDS011;59898;52.786;6.892;2023-08-08T14:59:36;7.80;;;2.17;;
52668;SDS011;59898;52.786;6.892;2023-08-08T15:02:56;5.50;;;2.10;;
52668;SDS011;59898;52.786;6.892;2023-08-08T15:06:17;7.07;;;2.83;;
52668;SDS011;59898;52.786;6.892;2023-08-08T15:09:38;5.85;;;2.17;;
52668;SDS011;59898;52.786;6.892;2023-08-08T15:12:58;4.38;;;2.17;;
52668;SDS011;59898;52.786;6.892;2023-08-08T15:16:19;4.10;;;2.15;;
52668;SDS011;59898;52.786;6.892;2023-08-08T15:19:39;5.47;;;2.60;;
52668;SDS011;59898;52.786;6.892;2023-08-08T15:23:00;5.25;;;2.00;;
52668;SDS011;59898;52.786;6.892;2023-08-08T15:26:20;2.65;;;1.90;;
52668;SDS011;59898;52.786;6.892;2023-08-08T15:29:42;7.20;;;3.10;;
52668;SDS011;59898;52.786;6.892;2023-08-08T15:33:03;3.60;;;2.10;;
52668;SDS011;59898;52.786;6.892;2023-08-08T15:36:24;7.38;;;2.80;;
52668;SDS011;59898;52.786;6.892;2023-08-08T15:39:44;4.88;;;2.10;;
52668;SDS011;59898;52.786;6.892;2023-08-08T15:43:06;4.60;;;2.40;;
52668;SDS011;59898;52.786;6.892;2023-08-08T15:46:27;8.15;;;2.40;;
52668;SDS011;59898;52.786;6.892;2023-08-08T15:49:47;5.45;;;2.45;;
52668;SDS011;59898;52.786;6.892;2023-08-08T15:53:08;6.93;;;2.20;;
52668;SDS011;59898;52.786;6.892;2023-08-08T15:56:30;6.55;;;2.40;;
52668;SDS011;59898;52.786;6.892;2023-08-08T15:59:50;16.75;;;3.25;;
52668;SDS011;59898;52.786;6.892;2023-08-08T16:03:11;4.97;;;2.63;;
52668;SDS011;59898;52.786;6.892;2023-08-08T16:06:32;5.38;;;2.30;;
52668;SDS011;59898;52.786;6.892;2023-08-08T16:09:52;4.72;;;2.10;;
52668;SDS011;59898;52.786;6.892;2023-08-08T16:13:13;3.40;;;1.98;;
52668;SDS011;59898;52.786;6.892;2023-08-08T16:16:33;6.00;;;2.28;;
52668;SDS011;59898;52.786;6.892;2023-08-08T16:19:54;4.20;;;2.10;;
52668;SDS011;59898;52.786;6.892;2023-08-08T16:23:14;4.50;;;2.33;;
52668;SDS011;59898;52.786;6.892;2023-08-08T16:26:35;2.65;;;1.70;;
52668;SDS011;59898;52.786;6.892;2023-08-08T16:29:55;7.13;;;2.58;;
52668;SDS011;59898;52.786;6.892;2023-08-08T16:33:16;6.25;;;2.20;;
52668;SDS011;59898;52.786;6.892;2023-08-08T16:36:37;3.40;;;2.35;;
52668;SDS011;59898;52.786;6.892;2023-08-08T16:39:59;3.38;;;1.85;;
52668;SDS011;59898;52.786;6.892;2023-08-08T16:43:20;3.15;;;1.70;;
52668;SDS011;59898;52.786;6.892;2023-08-08T16:46:40;5.93;;;2.10;;
52668;SDS011;59898;52.786;6.892;2023-08-08T16:50:01;6.78;;;1.80;;
52668;SDS011;59898;52.786;6.892;2023-08-08T16:53:23;6.13;;;2.13;;
52668;SDS011;59898;52.786;6.892;2023-08-08T16:56:44;3.95;;;2.30;;
52668;SDS011;59898;52.786;6.892;2023-08-08T17:00:05;3.75;;;1.77;;
52668;SDS011;59898;52.786;6.892;2023-08-08T17:03:28;6.70;;;1.80;;
52668;SDS011;59898;52.786;6.892;2023-08-08T17:06:48;3.88;;;1.80;;
52668;SDS011;59898;52.786;6.892;2023-08-08T17:10:09;4.82;;;1.85;;
52668;SDS011;59898;52.786;6.892;2023-08-08T17:13:29;4.85;;;1.90;;
52668;SDS011;59898;52.786;6.892;2023-08-08T17:16:50;6.07;;;1.70;;
52668;SDS011;59898;52.786;6.892;2023-08-08T17:20:11;2.72;;;1.55;;
52668;SDS011;59898;52.786;6.892;2023-08-08T17:23:32;3.08;;;1.60;;
52668;SDS011;59898;52.786;6.892;2023-08-08T17:26:52;8.73;;;1.98;;
52668;SDS011;59898;52.786;6.892;2023-08-08T17:30:13;6.90;;;1.80;;
52668;SDS011;59898;52.786;6.892;2023-08-08T17:33:33;4.63;;;1.80;;
52668;SDS011;59898;52.786;6.892;2023-08-08T17:36:55;2.40;;;1.50;;
52668;SDS011;59898;52.786;6.892;2023-08-08T17:40:16;2.55;;;1.67;;
52668;SDS011;59898;52.786;6.892;2023-08-08T17:43:36;4.78;;;1.92;;
52668;SDS011;59898;52.786;6.892;2023-08-08T17:46:57;4.10;;;1.58;;
52668;SDS011;59898;52.786;6.892;2023-08-08T17:50:18;3.65;;;1.60;;
52668;SDS011;59898;52.786;6.892;2023-08-08T17:53:38;3.85;;;2.00;;
52668;SDS011;59898;52.786;6.892;2023-08-08T17:56:59;3.42;;;1.63;;
52668;SDS011;59898;52.786;6.892;2023-08-08T18:00:20;3.88;;;1.70;;
52668;SDS011;59898;52.786;6.892;2023-08-08T18:03:41;4.60;;;1.80;;
52668;SDS011;59898;52.786;6.892;2023-08-08T18:10:25;3.38;;;1.63;;
52668;SDS011;59898;52.786;6.892;2023-08-08T18:13:45;4.68;;;1.60;;
52668;SDS011;59898;52.786;6.892;2023-08-08T18:17:07;6.63;;;4.25;;
52668;SDS011;59898;52.786;6.892;2023-08-08T18:20:28;4.20;;;2.25;;
52668;SDS011;59898;52.786;6.892;2023-08-08T18:23:49;2.83;;;1.75;;
52668;SDS011;59898;52.786;6.892;2023-08-08T18:27:09;4.93;;;2.38;;
52668;SDS011;59898;52.786;6.892;2023-08-08T18:30:30;6.32;;;2.53;;
52668;SDS011;59898;52.786;6.892;2023-08-08T18:33:56;7.65;;;2.58;;
52668;SDS011;59898;52.786;6.892;2023-08-08T18:37:18;6.50;;;1.95;;
52668;SDS011;59898;52.786;6.892;2023-08-08T18:40:39;5.25;;;2.40;;
52668;SDS011;59898;52.786;6.892;2023-08-08T18:43:59;4.13;;;1.98;;
52668;SDS011;59898;52.786;6.892;2023-08-08T18:47:20;3.53;;;1.90;;
52668;SDS011;59898;52.786;6.892;2023-08-08T18:50:40;5.95;;;2.17;;
52668;SDS011;59898;52.786;6.892;2023-08-08T18:54:01;4.05;;;1.60;;
52668;SDS011;59898;52.786;6.892;2023-08-08T18:57:24;3.67;;;1.88;;
52668;SDS011;59898;52.786;6.892;2023-08-08T19:00:45;6.40;;;2.25;;
52668;SDS011;59898;52.786;6.892;2023-08-08T19:04:05;5.45;;;2.00;;
52668;SDS011;59898;52.786;6.892;2023-08-08T19:07:26;3.85;;;1.60;;
52668;SDS011;59898;52.786;6.892;2023-08-08T19:10:47;6.10;;;2.53;;
52668;SDS011;59898;52.786;6.892;2023-08-08T19:14:07;5.32;;;2.25;;
52668;SDS011;59898;52.786;6.892;2023-08-08T19:17:28;3.53;;;1.80;;
52668;SDS011;59898;52.786;6.892;2023-08-08T19:20:49;4.45;;;2.13;;
52668;SDS011;59898;52.786;6.892;2023-08-08T19:24:09;12.10;;;8.32;;
52668;SDS011;59898;52.786;6.892;2023-08-08T19:27:30;5.82;;;2.17;;
52668;SDS011;59898;52.786;6.892;2023-08-08T19:30:51;6.15;;;2.35;;
52668;SDS011;59898;52.786;6.892;2023-08-08T19:34:12;4.53;;;1.80;;
52668;SDS011;59898;52.786;6.892;2023-08-08T19:37:32;4.68;;;1.77;;
52668;SDS011;59898;52.786;6.892;2023-08-08T19:40:53;3.30;;;1.95;;
52668;SDS011;59898;52.786;6.892;2023-08-08T19:44:14;2.80;;;1.85;;
52668;SDS011;59898;52.786;6.892;2023-08-08T19:47:34;5.22;;;2.20;;
52668;SDS011;59898;52.786;6.892;2023-08-08T19:50:55;3.28;;;1.73;;
52668;SDS011;59898;52.786;6.892;2023-08-08T19:54:16;4.45;;;2.20;;
52668;SDS011;59898;52.786;6.892;2023-08-08T19:57:37;4.50;;;1.70;;
52668;SDS011;59898;52.786;6.892;2023-08-08T20:00:58;6.97;;;2.20;;
52668;SDS011;59898;52.786;6.892;2023-08-08T20:04:18;4.30;;;2.53;;
52668;SDS011;59898;52.786;6.892;2023-08-08T20:07:39;5.47;;;2.08;;
52668;SDS011;59898;52.786;6.892;2023-08-08T20:11:00;4.68;;;1.90;;
52668;SDS011;59898;52.786;6.892;2023-08-08T20:14:20;3.85;;;2.15;;
52668;SDS011;59898;52.786;6.892;2023-08-08T20:17:41;3.90;;;1.77;;
52668;SDS011;59898;52.786;6.892;2023-08-08T20:21:02;4.68;;;2.42;;
52668;SDS011;59898;52.786;6.892;2023-08-08T20:24:23;3.22;;;2.13;;
52668;SDS011;59898;52.786;6.892;2023-08-08T20:27:43;5.68;;;2.58;;